Time;durP1;ratioP1;P1;durP2;ratioP2;P2;SDS_P1;SDS_P2;PMS_P1;PMS_P2;Temp;Humidity;BMP_temperature;BMP_pressure;BME280_temperature;BME280_humidity;BME280_pressure;Samples;Min_cycle;Max_cycle;Signal;HPM_P1;HPM_P2
2023/09/01 00:01:55;;;;;;;1.30;1.00;;;;;;;11.98;100.00;151690.75;10585835;28;20409;-81
2023/09/01 00:07:05;;;;;;;0.90;0.88;;;;;;;12.03;100.00;151702.38;10586366;28;20044;-81
2023/09/01 00:12:07;;;;;;;1.17;0.82;;;;;;;12.28;100.00;151765.72;10600920;28;20040;-81
2023/09/01 00:17:09;;;;;;;0.65;0.57;;;;;;;12.42;100.00;151800.63;10602736;28;20047;-80
2023/09/01 00:22:11;;;;;;;1.17;1.02;;;;;;;12.52;100.00;151827.78;10584183;28;20051;-80
2023/09/01 00:27:12;;;;;;;1.33;0.80;;;;;;;12.56;100.00;151838.13;10602156;28;20052;-80
2023/09/01 00:32:14;;;;;;;1.30;0.88;;;;;;;12.49;100.00;151818.75;10603310;28;20137;-80
2023/09/01 00:37:16;;;;;;;1.20;0.75;;;;;;;12.37;100.00;151789.00;10583898;28;20055;-80
2023/09/01 00:42:17;;;;;;;1.35;1.17;;;;;;;12.45;100.00;151808.41;10585242;28;20493;-80
2023/09/01 00:47:20;;;;;;;1.42;1.27;;;;;;;12.52;100.00;151826.47;10585525;28;20051;-80
2023/09/01 00:52:23;;;;;;;2.05;1.25;;;;;;;12.49;100.00;151820.03;10602966;28;20099;-82
2023/09/01 00:57:25;;;;;;;4.30;1.27;;;;;;;12.49;100.00;151820.03;10603569;28;20056;-79
2023/09/01 01:02:26;;;;;;;1.88;1.33;;;;;;;12.49;100.00;151820.03;10603005;28;20039;-82
2023/09/01 01:07:43;;;;;;;1.98;1.52;;;;;;;12.48;100.00;151817.44;10601056;28;20101;-81
2023/09/01 01:13:08;;;;;;;2.25;1.10;;;;;;;12.68;100.00;151866.59;10603010;28;20042;-81
2023/09/01 01:18:12;;;;;;;1.52;1.10;;;;;;;12.50;100.00;151822.63;10599364;28;20504;-82
2023/09/01 01:23:17;;;;;;;1.73;1.10;;;;;;;12.26;100.00;151760.53;10582638;28;20055;-81
2023/09/01 01:28:20;;;;;;;1.55;0.95;;;;;;;12.19;100.00;151742.47;10602955;28;20428;-82
2023/09/01 01:33:41;;;;;;;2.25;1.27;;;;;;;12.44;100.00;151807.13;10608246;28;20058;-81
2023/09/01 01:38:54;;;;;;;1.65;1.00;;;;;;;12.65;100.00;151858.81;10609454;28;20036;-81
2023/09/01 01:43:58;;;;;;;1.48;1.17;;;;;;;12.37;100.00;151790.28;10609112;28;20510;-81
2023/09/01 01:48:59;;;;;;;3.20;1.20;;;;;;;12.45;100.00;151809.69;10609249;28;20069;-81
2023/09/01 01:54:02;;;;;;;1.70;1.60;;;;;;;12.67;100.00;151864.03;10591227;28;20050;-81
2023/09/01 01:59:04;;;;;;;2.55;1.35;;;;;;;12.66;100.00;151861.41;10609452;28;20036;-81
2023/09/01 02:04:06;;;;;;;2.42;1.42;;;;;;;12.32;100.00;151777.38;10591087;28;20040;-81
2023/09/01 02:09:09;;;;;;;1.73;1.45;;;;;;;12.24;100.00;151756.69;10608488;28;20039;-80
2023/09/01 02:14:11;;;;;;;2.20;1.90;;;;;;;12.20;100.00;151745.03;10571969;28;20074;-80
2023/09/01 02:19:13;;;;;;;3.05;1.38;;;;;;;12.29;100.00;151768.31;10588928;28;20047;-79
2023/09/01 02:24:15;;;;;;;1.50;1.40;;;;;;;12.28;100.00;151765.72;10587472;28;20039;-79
2023/09/01 02:29:17;;;;;;;3.55;1.58;;;;;;;12.24;100.00;151755.38;10605798;28;20042;-80
2023/09/01 02:34:19;;;;;;;2.13;1.60;;;;;;;12.23;100.00;151754.09;10606202;28;20100;-79
2023/09/01 02:39:21;;;;;;;3.17;1.60;;;;;;;12.28;100.00;151765.72;10605589;28;20554;-79
2023/09/01 02:44:23;;;;;;;2.30;1.45;;;;;;;12.17;100.00;151737.28;10587192;28;20051;-80
2023/09/01 02:49:25;;;;;;;2.10;1.45;;;;;;;12.12;100.00;151725.63;10605733;28;20047;-79
2023/09/01 02:54:28;;;;;;;2.63;1.48;;;;;;;12.14;100.00;151729.56;10588567;28;20517;-79
2023/09/01 02:59:30;;;;;;;3.13;1.83;;;;;;;12.16;100.00;151736.00;10607028;28;20043;-80
2023/09/01 03:04:31;;;;;;;2.30;1.60;;;;;;;12.05;100.00;151708.88;10586909;28;20050;-80
2023/09/01 03:09:33;;;;;;;2.85;1.70;;;;;;;12.00;100.00;151695.94;10606053;28;20040;-80
2023/09/01 03:14:35;;;;;;;3.60;1.73;;;;;;;12.09;100.00;151719.22;10604840;28;20111;-79
2023/09/01 03:19:38;;;;;;;4.57;1.75;;;;;;;12.46;100.00;151812.28;10580843;28;20496;-79
2023/09/01 03:24:39;;;;;;;4.70;1.67;;;;;;;12.51;100.00;151823.91;10579321;28;20413;-79
2023/09/01 03:29:42;;;;;;;6.93;1.77;;;;;;;12.71;98.56;151874.38;10595346;28;20123;-79
2023/09/01 03:34:45;;;;;;;2.47;1.55;;;;;;;12.74;97.03;151882.09;10577357;28;20054;-80
2023/09/01 03:39:48;;;;;;;3.72;1.70;;;;;;;12.74;96.74;151882.09;10581256;28;20092;-79
2023/09/01 03:44:50;;;;;;;3.53;1.85;;;;;;;12.81;95.18;151900.22;10601551;28;20039;-80
2023/09/01 03:49:51;;;;;;;4.43;1.90;;;;;;;12.77;95.81;151891.16;10584011;28;20043;-80
2023/09/01 03:54:53;;;;;;;3.08;1.83;;;;;;;12.70;96.51;151873.03;10577857;28;20126;-80
2023/09/01 03:59:55;;;;;;;4.03;1.98;;;;;;;12.70;95.96;151871.75;10584230;28;20054;-79
2023/09/01 04:04:57;;;;;;;3.17;2.03;;;;;;;12.52;97.85;151827.78;10605298;28;20058;-80
2023/09/01 04:09:59;;;;;;;2.38;1.70;;;;;;;12.29;100.00;151768.31;10587744;28;20115;-80
2023/09/01 04:15:01;;;;;;;3.28;1.80;;;;;;;12.01;100.00;151698.50;10604774;28;20050;-79
2023/09/01 04:20:06;;;;;;;3.33;1.73;;;;;;;11.92;100.00;151675.25;10604985;28;20441;-79
2023/09/01 04:25:08;;;;;;;2.90;2.38;;;;;;;11.76;100.00;151635.13;10604649;28;20036;-79
2023/09/01 04:30:11;;;;;;;3.03;1.98;;;;;;;11.73;100.00;151626.06;10603384;28;20044;-79
2023/09/01 04:35:14;;;;;;;5.43;2.55;;;;;;;11.75;100.00;151631.25;10583837;28;20047;-78
2023/09/01 04:40:16;;;;;;;4.63;1.80;;;;;;;11.90;100.00;151668.78;10583555;28;20052;-79
2023/09/01 04:45:18;;;;;;;4.15;2.80;;;;;;;11.83;100.00;151652.00;10583846;28;20047;-79
2023/09/01 04:50:20;;;;;;;4.60;2.47;;;;;;;11.97;100.00;151688.16;10583794;28;20043;-78
2023/09/01 04:55:22;;;;;;;4.30;2.30;;;;;;;12.00;100.00;151695.94;10583356;28;20040;-80
2023/09/01 05:00:24;;;;;;;4.45;2.60;;;;;;;12.05;100.00;151707.56;10583915;28;20055;-78
2023/09/01 05:05:26;;;;;;;3.78;2.67;;;;;;;12.20;100.00;151745.03;10566719;28;20040;-79
2023/09/01 05:10:28;;;;;;;5.22;2.70;;;;;;;12.16;100.00;151734.69;10574381;28;20138;-78
2023/09/01 05:15:30;;;;;;;4.78;3.00;;;;;;;12.23;100.00;151752.81;10574000;28;20493;-79
2023/09/01 05:20:32;;;;;;;5.38;2.80;;;;;;;12.30;100.00;151772.16;10590111;28;20036;-78
2023/09/01 05:25:34;;;;;;;3.90;2.83;;;;;;;12.41;100.00;151798.06;10574092;28;20044;-78
2023/09/01 05:30:39;;;;;;;4.43;2.88;;;;;;;12.83;100.00;151905.38;10566399;28;20046;-78
2023/09/01 05:35:41;;;;;;;4.85;3.13;;;;;;;12.88;100.00;151918.28;10586035;28;20036;-77
2023/09/01 05:40:42;;;;;;;3.75;2.65;;;;;;;12.96;100.00;151937.72;10564514;28;20047;-77
2023/09/01 05:45:44;;;;;;;3.10;2.55;;;;;;;12.91;100.00;151924.78;10564497;28;20093;-76
2023/09/01 05:50:47;;;;;;;3.33;2.50;;;;;;;12.90;100.00;151923.50;10566085;28;20066;-76
2023/09/01 05:55:50;;;;;;;3.75;2.60;;;;;;;12.99;100.00;151945.50;10589053;28;20051;-78
2023/09/01 06:00:51;;;;;;;3.65;2.30;;;;;;;13.13;100.00;151982.97;10586335;28;20047;-78
2023/09/01 06:05:53;;;;;;;3.40;2.42;;;;;;;13.50;100.00;152076.22;10591635;28;20089;-79
2023/09/01 06:11:03;;;;;;;4.57;2.08;;;;;;;13.84;100.00;152162.91;10591966;28;20061;-79
2023/09/01 06:16:05;;;;;;;3.15;1.90;;;;;;;14.09;97.33;152226.34;10591692;28;20130;-78
2023/09/01 06:21:07;;;;;;;3.67;2.70;;;;;;;14.31;95.84;152282.00;10573832;28;20048;-79
2023/09/01 06:26:09;;;;;;;4.90;1.55;;;;;;;14.48;92.41;152324.78;10594978;28;20040;-78
2023/09/01 06:31:12;;;;;;;2.72;1.90;;;;;;;14.53;95.76;152336.44;10593038;28;20043;-78
2023/09/01 06:36:14;;;;;;;3.80;2.13;;;;;;;14.58;97.29;152349.38;10554441;28;20047;-80
2023/09/01 06:41:16;;;;;;;3.28;2.05;;;;;;;15.20;89.97;152506.13;10598177;28;20035;-78
2023/09/01 06:46:18;;;;;;;4.32;2.08;;;;;;;15.12;95.91;152486.66;10593738;28;20075;-79
2023/09/01 06:51:20;;;;;;;4.18;2.00;;;;;;;15.71;89.89;152637.00;10594369;28;20118;-79
2023/09/01 06:56:22;;;;;;;4.65;1.50;;;;;;;16.40;78.27;152813.34;10575067;28;20048;-78
2023/09/01 07:01:23;;;;;;;6.10;1.98;;;;;;;16.63;78.32;152870.38;10592303;28;20040;-77
2023/09/01 07:06:25;;;;;;;3.65;1.83;;;;;;;16.64;78.13;152872.97;10570884;28;20044;-77
2023/09/01 07:11:27;;;;;;;4.35;1.55;;;;;;;16.70;77.98;152887.28;10591405;28;20043;-77
2023/09/01 07:16:29;;;;;;;3.55;1.65;;;;;;;16.85;77.12;152926.22;10571659;28;20069;-77
2023/09/01 07:21:31;;;;;;;6.00;1.45;;;;;;;16.81;78.43;152915.81;10588671;28;20043;-77
2023/09/01 07:26:32;;;;;;;3.88;1.98;;;;;;;16.77;80.69;152905.44;10588663;28;20127;-77
2023/09/01 07:31:34;;;;;;;4.90;1.50;;;;;;;17.09;76.54;152987.19;10588834;28;20044;-78
2023/09/01 07:36:36;;;;;;;5.07;1.83;;;;;;;17.56;70.27;153107.84;10586184;28;20039;-78
2023/09/01 07:41:38;;;;;;;3.10;1.42;;;;;;;17.12;73.10;152994.94;10590354;28;20097;-78
2023/09/01 07:46:39;;;;;;;3.15;1.90;;;;;;;17.30;71.32;153041.66;10587657;28;20127;-78
2023/09/01 07:51:43;;;;;;;4.25;1.60;;;;;;;17.04;72.23;152974.19;10589043;28;20047;-78
2023/09/01 07:56:44;;;;;;;2.53;1.55;;;;;;;17.25;76.40;153028.69;10590213;28;20105;-78
2023/09/01 08:01:46;;;;;;;3.13;1.60;;;;;;;17.43;76.65;153074.09;10588385;28;20048;-78
2023/09/01 08:06:48;;;;;;;2.88;1.63;;;;;;;17.49;74.20;153089.69;10568941;28;20043;-78
2023/09/01 08:11:50;;;;;;;3.17;1.83;;;;;;;17.60;71.79;153116.94;10586298;28;20512;-78
2023/09/01 08:16:52;;;;;;;2.40;1.60;;;;;;;17.74;68.66;153152.00;10551847;28;20046;-78
2023/09/01 08:21:54;;;;;;;2.75;1.30;;;;;;;18.01;62.95;153220.81;10586944;28;20077;-78
2023/09/01 08:26:55;;;;;;;3.38;1.35;;;;;;;18.18;61.05;153264.94;10586075;28;20050;-78
2023/09/01 08:31:57;;;;;;;2.83;1.20;;;;;;;18.06;62.43;153233.78;10586656;28;20075;-77
2023/09/01 08:36:59;;;;;;;1.92;1.20;;;;;;;18.36;62.95;153311.69;10584943;28;20039;-77
2023/09/01 08:42:02;;;;;;;5.47;1.50;;;;;;;18.48;63.84;153340.25;10584260;28;20063;-78
2023/09/01 08:47:04;;;;;;;3.70;1.10;;;;;;;18.90;60.61;153448.06;10585822;28;20043;-77
2023/09/01 08:52:06;;;;;;;3.40;1.30;;;;;;;18.85;60.61;153435.09;10583282;28;20040;-77
2023/09/01 08:57:08;;;;;;;3.03;1.23;;;;;;;18.29;63.49;153292.25;10582459;28;20462;-77
2023/09/01 09:02:09;;;;;;;6.40;2.42;;;;;;;19.04;58.61;153484.50;10583836;28;20123;-77
2023/09/01 09:07:16;;;;;;;3.67;1.67;;;;;;;19.01;60.40;153476.69;10583344;28;20063;-76
2023/09/01 09:12:20;;;;;;;3.45;1.25;;;;;;;19.19;60.38;153520.84;10570501;28;20071;-74
2023/09/01 09:17:23;;;;;;;2.92;1.33;;;;;;;19.34;59.52;153561.09;10582019;28;20126;-73
2023/09/01 09:22:25;;;;;;;3.00;1.33;;;;;;;19.71;57.83;153653.44;10581412;28;20054;-74
2023/09/01 09:27:27;;;;;;;4.18;1.30;;;;;;;20.18;56.47;153774.28;10581126;28;20111;-74
2023/09/01 09:32:28;;;;;;;1.63;1.30;;;;;;;19.81;57.01;153680.72;10581724;28;20115;-73
2023/09/01 09:37:31;;;;;;;2.15;0.98;;;;;;;20.34;56.82;153815.91;10563425;28;20398;-74
2023/09/01 09:42:40;;;;;;;2.20;1.10;;;;;;;19.97;56.77;153721.03;10581784;28;20039;-74
2023/09/01 09:47:44;;;;;;;1.85;1.10;;;;;;;20.88;56.58;153953.78;10582642;28;20040;-74
2023/09/01 09:52:58;;;;;;;2.28;1.13;;;;;;;21.47;50.53;154102.13;10570615;28;20085;-74
2023/09/01 09:58:04;;;;;;;1.77;1.10;;;;;;;22.18;48.94;154284.41;10588631;28;20043;-74
2023/09/01 10:03:06;;;;;;;;;;;;;;;21.65;50.06;154149.00;10588851;28;20074;-73
2023/09/01 10:08:09;;;;;;;1.50;1.00;;;;;;;21.29;51.71;154056.53;10588423;28;20007;-74
2023/09/01 10:13:12;;;;;;;2.75;1.05;;;;;;;21.24;51.40;154043.53;10569747;28;20039;-74
2023/09/01 10:18:14;;;;;;;2.63;1.23;;;;;;;20.68;55.25;153901.78;10587501;28;20484;-73
2023/09/01 10:23:16;;;;;;;1.45;0.95;;;;;;;20.75;55.36;153919.97;10569759;28;20040;-74
2023/09/01 10:28:19;;;;;;;1.42;0.90;;;;;;;21.12;55.78;154013.66;10569916;28;20047;-74
2023/09/01 10:33:26;;;;;;;2.28;1.10;;;;;;;21.20;54.15;154034.41;10588795;28;20047;-76
2023/09/01 10:38:32;;;;;;;1.45;0.98;;;;;;;20.87;55.84;153951.19;10587708;28;20044;-77
2023/09/01 10:43:41;;;;;;;2.45;1.00;;;;;;;21.58;53.31;154132.06;10587858;28;20119;-76
2023/09/01 10:49:04;;;;;;;1.23;0.88;;;;;;;21.25;54.12;154046.13;10587348;28;20047;-79
2023/09/01 10:54:14;;;;;;;1.98;1.15;;;;;;;21.53;53.52;154119.06;10568590;28;20040;-74
2023/09/01 10:59:30;;;;;;;3.25;1.25;;;;;;;21.60;54.95;154137.28;10587412;28;20095;-76
2023/09/01 11:04:32;;;;;;;;;;;;;;;21.52;55.72;154115.19;10587283;28;20066;-76
2023/09/01 11:09:34;;;;;;;1.02;0.93;;;;;;;22.46;49.61;154356.00;10586925;28;20014;-76
2023/09/01 11:14:56;;;;;;;1.33;0.77;;;;;;;21.95;53.38;154225.75;10587031;28;20048;-76
2023/09/01 11:19:57;;;;;;;1.55;0.90;;;;;;;21.34;53.37;154069.63;10568385;28;20066;-76
2023/09/01 11:24:59;;;;;;;1.05;0.60;;;;;;;21.97;50.85;154230.97;10585115;28;20058;-77
2023/09/01 11:30:03;;;;;;;1.15;0.50;;;;;;;21.98;51.28;154233.56;10585246;28;20082;-77
2023/09/01 11:35:05;;;;;;;1.35;0.60;;;;;;;21.84;52.29;154197.13;10585188;28;20043;-76
2023/09/01 11:40:09;;;;;;;2.28;0.70;;;;;;;21.55;55.62;154122.94;10567414;28;20458;-77
2023/09/01 11:45:11;;;;;;;0.98;0.52;;;;;;;21.30;54.95;154059.19;10585389;28;20039;-77
2023/09/01 11:50:13;;;;;;;1.50;0.63;;;;;;;21.91;54.51;154215.34;10583785;28;20067;-77
2023/09/01 11:55:32;;;;;;;1.38;1.05;;;;;;;21.98;52.88;154232.28;10583503;28;20067;-77
2023/09/01 12:00:38;;;;;;;1.25;0.30;;;;;;;21.83;55.14;154195.84;10583119;28;20100;-76
2023/09/01 12:05:40;;;;;;;1.08;0.35;;;;;;;21.55;54.91;154124.25;10583586;28;20088;-73
2023/09/01 12:10:42;;;;;;;2.25;0.40;;;;;;;21.23;55.88;154042.25;10583074;28;20114;-74
2023/09/01 12:16:01;;;;;;;0.30;0.30;;;;;;;21.50;55.20;154109.94;10582970;28;20039;-72
2023/09/01 12:21:05;;;;;;;1.35;0.40;;;;;;;21.86;54.44;154202.31;10583051;28;20039;-74
2023/09/01 12:26:07;;;;;;;1.10;0.30;;;;;;;22.26;52.56;154305.19;10582706;28;20039;-73
2023/09/01 12:31:10;;;;;;;0.20;0.20;;;;;;;21.99;54.11;154236.16;10563641;28;20092;-74
2023/09/01 12:36:13;;;;;;;0.65;0.30;;;;;;;21.69;55.05;154158.06;10583155;28;20075;-74
2023/09/01 12:41:14;;;;;;;1.05;0.45;;;;;;;21.89;54.67;154210.16;10583137;28;20231;-73
2023/09/01 12:46:16;;;;;;;1.00;0.60;;;;;;;21.96;55.38;154227.03;10566565;28;20119;-76
2023/09/01 12:51:18;;;;;;;0.40;0.40;;;;;;;22.08;54.26;154259.59;10584255;28;20047;-76
2023/09/01 12:56:20;;;;;;;0.30;0.30;;;;;;;22.17;53.31;154281.75;10583556;28;20040;-76
2023/09/01 13:01:21;;;;;;;0.40;0.30;;;;;;;21.97;55.59;154230.97;10583720;28;20039;-77
2023/09/01 13:06:23;;;;;;;0.40;0.40;;;;;;;22.10;55.16;154263.53;10584355;28;20064;-76
2023/09/01 13:11:25;;;;;;;0.40;0.30;;;;;;;22.05;53.76;154250.50;10584925;28;20118;-77
2023/09/01 13:16:29;;;;;;;0.25;0.25;;;;;;;22.12;52.70;154270.06;10565425;28;20100;-77
2023/09/01 13:21:30;;;;;;;0.40;0.30;;;;;;;22.16;54.60;154280.47;10584388;28;20043;-76
2023/09/01 13:26:32;;;;;;;0.30;0.30;;;;;;;22.16;54.16;154280.47;10592429;28;20088;-76
2023/09/01 13:31:37;;;;;;;0.20;0.20;;;;;;;22.10;54.04;154263.53;10592812;28;20044;-77
2023/09/01 13:36:39;;;;;;;0.40;0.30;;;;;;;22.17;55.21;154283.06;10575257;28;20055;-76
2023/09/01 13:41:41;;;;;;;0.73;0.30;;;;;;;22.05;58.00;154250.50;10593607;28;20066;-76
2023/09/01 13:46:43;;;;;;;0.20;0.20;;;;;;;22.57;55.45;154384.59;10575277;28;20044;-77
2023/09/01 13:51:45;;;;;;;3.13;0.73;;;;;;;22.79;52.54;154440.59;10596293;28;20130;-77
2023/09/01 13:56:49;;;;;;;1.95;0.70;;;;;;;22.32;55.13;154320.84;10594296;28;20040;-76
2023/09/01 14:01:51;;;;;;;1.42;1.10;;;;;;;22.07;56.91;154257.00;10593829;28;20139;-77
2023/09/01 14:06:53;;;;;;;1.38;1.23;;;;;;;21.85;57.13;154199.72;10595536;28;20059;-77
2023/09/01 14:11:55;;;;;;;1.40;0.73;;;;;;;21.73;58.04;154168.50;10594431;28;20052;-77
2023/09/01 14:16:57;;;;;;;1.38;0.70;;;;;;;21.72;57.52;154165.91;10591386;28;20051;-77
2023/09/01 14:21:59;;;;;;;2.42;0.90;;;;;;;21.44;59.50;154095.66;10572532;28;20473;-77
2023/09/01 14:27:01;;;;;;;1.27;0.60;;;;;;;21.41;60.15;154089.13;10589769;28;20473;-77
2023/09/01 14:32:04;;;;;;;0.70;0.65;;;;;;;21.46;59.78;154100.81;10572113;28;20088;-77
2023/09/01 14:37:05;;;;;;;0.85;0.80;;;;;;;21.36;58.07;154074.81;10571426;28;20058;-78
2023/09/01 14:42:07;;;;;;;1.50;0.80;;;;;;;21.10;58.80;154008.41;10589836;28;20046;-78
2023/09/01 14:47:09;;;;;;;1.30;0.70;;;;;;;21.17;60.34;154026.66;10590018;28;20412;-78
2023/09/01 14:52:12;;;;;;;0.98;0.75;;;;;;;20.90;63.10;153959.00;10573155;28;20043;-77
2023/09/01 14:57:14;;;;;;;0.80;0.70;;;;;;;20.87;65.73;153949.91;10591220;28;20075;-77
2023/09/01 15:02:16;;;;;;;1.60;1.00;;;;;;;21.28;60.59;154053.94;10589835;28;20050;-77
2023/09/01 15:07:18;;;;;;;1.40;0.90;;;;;;;21.35;61.13;154072.22;10588640;28;20038;-77
2023/09/01 15:12:20;;;;;;;1.17;0.57;;;;;;;21.37;59.33;154077.41;10590825;28;20047;-78
2023/09/01 15:17:22;;;;;;;1.00;0.55;;;;;;;21.20;62.01;154033.13;10591844;28;20036;-77
2023/09/01 15:22:24;;;;;;;0.82;0.73;;;;;;;20.92;64.02;153962.91;10595377;28;20039;-77
2023/09/01 15:27:26;;;;;;;0.88;0.70;;;;;;;20.98;61.43;153977.19;10590671;28;20114;-77
2023/09/01 15:32:28;;;;;;;0.50;0.30;;;;;;;21.00;59.82;153982.41;10589437;28;20044;-78
2023/09/01 15:37:30;;;;;;;0.65;0.32;;;;;;;20.95;61.35;153970.72;10590782;28;20443;-78
2023/09/01 15:42:32;;;;;;;0.65;0.60;;;;;;;20.72;63.20;153912.19;10591940;28;20044;-78
2023/09/01 15:47:34;;;;;;;0.60;0.30;;;;;;;20.78;61.13;153927.78;10590856;28;20055;-77
2023/09/01 15:52:36;;;;;;;0.55;0.30;;;;;;;20.45;66.23;153841.91;10575115;28;20075;-77
2023/09/01 15:57:39;;;;;;;0.40;0.32;;;;;;;20.37;65.19;153822.44;10590006;28;20040;-77
2023/09/01 16:02:41;;;;;;;0.57;0.40;;;;;;;20.48;64.59;153849.75;10588867;28;20071;-78
2023/09/01 16:07:43;;;;;;;0.47;0.22;;;;;;;20.44;63.86;153840.59;10595158;28;20035;-78
2023/09/01 16:12:45;;;;;;;0.30;0.20;;;;;;;20.34;64.96;153814.59;10598434;28;20133;-78
2023/09/01 16:17:47;;;;;;;0.22;0.20;;;;;;;20.07;65.73;153747.00;10595149;28;20450;-78
2023/09/01 16:22:49;;;;;;;0.22;0.22;;;;;;;20.03;67.11;153735.31;10576895;28;20048;-78
2023/09/01 16:27:52;;;;;;;0.45;0.30;;;;;;;19.93;68.22;153709.34;10595461;28;20031;-78
2023/09/01 16:32:54;;;;;;;0.20;0.20;;;;;;;19.77;69.93;153670.31;10598839;28;20054;-78
2023/09/01 16:37:56;;;;;;;17.27;10.40;;;;;;;19.86;69.75;153692.41;10589617;28;20051;-79
2023/09/01 16:42:59;;;;;;;3.35;2.58;;;;;;;19.83;73.29;153684.59;10586723;28;20047;-79
2023/09/01 16:48:01;;;;;;;1.27;0.60;;;;;;;19.62;76.43;153631.34;10593583;28;20040;-78
2023/09/01 16:53:06;;;;;;;0.80;0.80;;;;;;;19.38;78.56;153570.19;10602797;28;20096;-80
2023/09/01 16:58:13;;;;;;;0.60;0.60;;;;;;;19.18;81.81;153518.25;10622326;28;20046;-80
2023/09/01 17:03:16;;;;;;;0.90;0.80;;;;;;;18.90;87.11;153448.06;10622637;28;20039;-81
2023/09/01 17:08:19;;;;;;;0.85;0.80;;;;;;;18.59;95.20;153368.81;10617136;28;20079;-80
2023/09/01 17:13:21;;;;;;;0.63;0.57;;;;;;;18.49;96.31;153344.16;10602964;28;20053;-79
2023/09/01 17:18:23;;;;;;;1.27;0.47;;;;;;;18.39;97.91;153318.19;10577119;28;20047;-78
2023/09/01 17:23:27;;;;;;;1.58;0.90;;;;;;;18.20;100.00;153270.16;10579130;28;20122;-79
2023/09/01 17:28:29;;;;;;;1.65;1.30;;;;;;;18.00;100.00;153218.22;10592782;28;20500;-77
2023/09/01 17:33:31;;;;;;;2.45;1.40;;;;;;;17.85;100.00;153181.88;10574087;28;20052;-79
2023/09/01 17:38:34;;;;;;;1.52;1.10;;;;;;;17.82;100.00;153172.78;10597640;28;20047;-80
2023/09/01 17:43:36;;;;;;;1.17;1.00;;;;;;;17.69;100.00;153139.00;10586903;28;20036;-80
2023/09/01 17:48:39;;;;;;;1.02;1.00;;;;;;;17.63;100.00;153126.03;10600924;28;20039;-80
2023/09/01 17:53:40;;;;;;;2.35;1.40;;;;;;;17.58;100.00;153111.75;10574363;28;20044;-79
2023/09/01 17:58:42;;;;;;;1.80;1.48;;;;;;;17.51;100.00;153094.88;10580944;28;20050;-79
2023/09/01 18:03:44;;;;;;;2.53;1.77;;;;;;;17.59;100.00;153115.63;10584222;28;20101;-79
2023/09/01 18:08:46;;;;;;;2.33;1.75;;;;;;;17.62;100.00;153123.44;10583344;28;20055;-80
2023/09/01 18:13:50;;;;;;;2.63;1.40;;;;;;;17.50;100.00;153092.28;10602303;28;20071;-79
2023/09/01 18:18:51;;;;;;;2.80;2.15;;;;;;;17.32;100.00;153046.88;10585304;28;20100;-78
2023/09/01 18:23:53;;;;;;;2.10;1.90;;;;;;;17.26;100.00;153029.97;10602369;28;20035;-78
2023/09/01 18:28:58;;;;;;;3.55;2.47;;;;;;;17.39;100.00;153063.72;10575507;28;20055;-79
2023/09/01 18:34:01;;;;;;;1.67;1.50;;;;;;;17.67;100.00;153133.81;10595956;28;20035;-77
2023/09/01 18:39:05;;;;;;;3.20;2.50;;;;;;;17.58;100.00;153113.06;10578775;28;20508;-79
2023/09/01 18:44:10;;;;;;;2.42;2.10;;;;;;;17.45;100.00;153078.03;10583358;28;20036;-78
2023/09/01 18:49:13;;;;;;;2.38;2.17;;;;;;;17.33;100.00;153048.16;10565965;28;20493;-79
2023/09/01 18:54:25;;;;;;;3.13;2.20;;;;;;;17.17;100.00;153007.91;10597659;28;20139;-80
2023/09/01 18:59:27;;;;;;;3.05;2.80;;;;;;;17.13;100.00;152998.88;10584091;28;20105;-80
2023/09/01 19:04:28;;;;;;;3.65;2.40;;;;;;;17.14;100.00;153000.16;10601834;28;20046;-78
2023/09/01 19:09:30;;;;;;;2.53;1.75;;;;;;;17.10;100.00;152989.78;10604081;28;20044;-80
2023/09/01 19:14:32;;;;;;;2.10;1.90;;;;;;;17.15;100.00;153002.75;10584057;28;20048;-80
2023/09/01 19:19:35;;;;;;;2.03;1.83;;;;;;;17.22;100.00;153019.59;10600425;28;20100;-78
2023/09/01 19:24:36;;;;;;;1.73;1.63;;;;;;;17.22;100.00;153019.59;10597135;28;20051;-73
2023/09/01 19:29:39;;;;;;;1.80;1.70;;;;;;;17.02;100.00;152969.03;10588074;28;20070;-73
2023/09/01 19:34:41;;;;;;;2.25;1.92;;;;;;;17.07;100.00;152982.00;10588770;28;20058;-73
2023/09/01 19:39:43;;;;;;;2.20;1.75;;;;;;;16.99;100.00;152961.22;10588106;28;20092;-72
2023/09/01 19:44:44;;;;;;;2.35;2.15;;;;;;;16.96;100.00;152954.75;10588750;28;20123;-72
2023/09/01 19:49:46;;;;;;;2.22;2.03;;;;;;;17.17;100.00;153006.63;10588343;28;20048;-73
2023/09/01 19:54:48;;;;;;;1.92;1.75;;;;;;;17.01;100.00;152967.72;10588044;28;20460;-73
2023/09/01 19:59:50;;;;;;;2.10;1.90;;;;;;;16.81;100.00;152915.81;10587244;28;20044;-73
2023/09/01 20:04:52;;;;;;;2.25;1.67;;;;;;;16.84;100.00;152923.63;10569327;28;20043;-73
2023/09/01 20:09:55;;;;;;;1.85;1.75;;;;;;;16.67;100.00;152879.47;10569020;28;20077;-72
2023/09/01 20:14:58;;;;;;;1.90;1.80;;;;;;;16.67;100.00;152879.47;10585800;28;20062;-73
2023/09/01 20:20:00;;;;;;;3.10;2.78;;;;;;;16.72;100.00;152892.44;10587308;28;20053;-72
2023/09/01 20:25:02;;;;;;;2.42;2.22;;;;;;;16.94;100.00;152948.25;10567988;28;20092;-72
2023/09/01 20:30:05;;;;;;;2.58;2.38;;;;;;;16.73;100.00;152896.34;10585497;28;20040;-73
2023/09/01 20:35:07;;;;;;;3.45;3.22;;;;;;;16.55;100.00;152850.91;10585460;28;20044;-72
2023/09/01 20:40:09;;;;;;;3.03;2.83;;;;;;;16.46;100.00;152826.28;10586179;28;20119;-74
2023/09/01 20:45:11;;;;;;;4.20;3.90;;;;;;;16.41;100.00;152814.63;10585629;28;20067;-73
2023/09/01 20:50:13;;;;;;;4.25;3.90;;;;;;;16.48;100.00;152832.78;10586087;28;20071;-72
2023/09/01 20:55:16;;;;;;;3.58;3.28;;;;;;;16.56;100.00;152853.56;10585444;28;20040;-72
2023/09/01 21:00:19;;;;;;;4.03;3.53;;;;;;;16.71;100.00;152889.84;10584204;28;20048;-73
2023/09/01 21:05:22;;;;;;;3.90;3.60;;;;;;;16.82;100.00;152919.75;10583927;28;20036;-73
2023/09/01 21:10:25;;;;;;;3.83;3.53;;;;;;;16.61;100.00;152866.50;10565946;28;20044;-72
2023/09/01 21:15:27;;;;;;;4.65;4.35;;;;;;;16.51;100.00;152840.59;10583575;28;20135;-73
2023/09/01 21:20:28;;;;;;;4.88;4.47;;;;;;;16.48;100.00;152832.78;10583304;28;20047;-72
2023/09/01 21:25:31;;;;;;;7.63;7.13;;;;;;;16.75;100.00;152900.28;10584395;28;20423;-72
2023/09/01 21:30:33;;;;;;;6.30;5.90;;;;;;;16.54;100.00;152848.34;10583622;28;20044;-73
2023/09/01 21:35:35;;;;;;;6.90;6.40;;;;;;;16.40;100.00;152813.34;10583837;28;20043;-72
2023/09/01 21:40:39;;;;;;;6.65;6.05;;;;;;;16.44;100.00;152822.41;10564538;28;20491;-72
2023/09/01 21:45:41;;;;;;;6.93;6.32;;;;;;;16.50;100.00;152837.97;10587972;28;20036;-73
2023/09/01 21:50:43;;;;;;;7.20;6.80;;;;;;;16.72;100.00;152893.78;10590925;28;20036;-73
2023/09/01 21:55:45;;;;;;;7.35;6.75;;;;;;;16.57;100.00;152854.84;10592671;28;20047;-72
2023/09/01 22:00:48;;;;;;;6.78;6.28;;;;;;;16.49;100.00;152835.38;10591437;28;20113;-72
2023/09/01 22:05:50;;;;;;;6.35;5.85;;;;;;;16.75;100.00;152900.28;10591866;28;20042;-73
2023/09/01 22:10:52;;;;;;;5.78;5.38;;;;;;;16.52;100.00;152841.88;10591889;28;20046;-73
2023/09/01 22:15:54;;;;;;;5.90;5.50;;;;;;;16.49;100.00;152835.38;10591833;28;20040;-73
2023/09/01 22:20:55;;;;;;;5.57;5.15;;;;;;;16.52;100.00;152841.88;10590604;28;20071;-73
2023/09/01 22:25:59;;;;;;;5.03;4.72;;;;;;;16.47;100.00;152830.22;10591461;28;20140;-73
2023/09/01 22:31:01;;;;;;;7.45;6.95;;;;;;;16.43;100.00;152819.84;10591587;28;20035;-73
2023/09/01 22:36:02;;;;;;;6.20;5.80;;;;;;;16.39;100.00;152809.47;10571653;28;20553;-73
2023/09/01 22:41:09;;;;;;;6.07;5.68;;;;;;;16.48;100.00;152832.78;10588612;28;20508;-73
2023/09/01 22:46:10;;;;;;;6.68;6.22;;;;;;;16.47;100.00;152830.22;10588108;28;20035;-73
2023/09/01 22:51:12;;;;;;;5.38;4.97;;;;;;;16.56;100.00;152852.25;10587150;28;20047;-72
2023/09/01 22:56:14;;;;;;;6.40;6.00;;;;;;;16.57;100.00;152854.84;10577879;28;20461;-73
2023/09/01 23:01:15;;;;;;;4.97;4.65;;;;;;;16.49;100.00;152834.09;10588072;28;20058;-73
2023/09/01 23:06:18;;;;;;;6.80;6.40;;;;;;;16.56;100.00;152852.25;10587368;28;20404;-73